Time;durP1;ratioP1;P1;durP2;ratioP2;P2;SDS_P1;SDS_P2;PMS_P1;PMS_P2;Temp;Humidity;BMP_temperature;BMP_pressure;BME280_temperature;BME280_humidity;BME280_pressure;Samples;Min_cycle;Max_cycle;Signal;HPM_P1;HPM_P2
2021/05/25 00:01:58;;;;;;;4.70;0.93;;;11.40;99.90;;;;;;5078434;28;20504;-81
2021/05/25 00:04:25;;;;;;;30.50;6.65;;;11.40;99.90;;;;;;5079804;28;20489;-82
2021/05/25 00:06:52;;;;;;;13.40;2.65;;;11.40;99.90;;;;;;5077377;28;20090;-82
2021/05/25 00:09:19;;;;;;;4.75;1.30;;;11.30;99.90;;;;;;5077028;28;20053;-82
2021/05/25 00:11:46;;;;;;;2.58;0.95;;;11.20;99.90;;;;;;5078182;28;20514;-82
2021/05/25 00:14:18;;;;;;;2.47;1.10;;;11.10;99.90;;;;;;5076968;28;20087;-83
2021/05/25 00:16:52;;;;;;;1.65;1.00;;;10.90;99.90;;;;;;5076715;28;20132;-82
2021/05/25 00:19:20;;;;;;;5.60;1.10;;;10.90;99.90;;;;;;5076749;28;20128;-82
2021/05/25 00:21:48;;;;;;;4.30;1.20;;;10.80;99.90;;;;;;5077468;28;20131;-82
2021/05/25 00:24:16;;;;;;;2.22;1.02;;;10.80;99.90;;;;;;5075868;28;20071;-83
2021/05/25 00:26:43;;;;;;;2.47;0.80;;;10.80;99.90;;;;;;5077541;28;20048;-82
2021/05/25 00:29:10;;;;;;;1.52;0.80;;;10.80;99.90;;;;;;5077029;28;20095;-81
2021/05/25 00:31:37;;;;;;;1.92;0.70;;;10.80;99.90;;;;;;5076771;28;20053;-83
2021/05/25 00:34:04;;;;;;;2.33;0.90;;;10.90;99.90;;;;;;5076818;28;20121;-81
2021/05/25 00:36:30;;;;;;;4.97;1.80;;;11.00;99.90;;;;;;5076517;28;20080;-81
2021/05/25 00:38:57;;;;;;;1.35;0.60;;;11.00;99.90;;;;;;5077252;28;20080;-81
2021/05/25 00:41:24;;;;;;;1.38;0.50;;;11.00;99.90;;;;;;5077166;28;20044;-80
2021/05/25 00:43:51;;;;;;;2.92;0.70;;;11.10;99.90;;;;;;5075101;28;20497;-81
2021/05/25 00:46:17;;;;;;;2.95;0.85;;;11.00;99.90;;;;;;5076473;28;20052;-83
2021/05/25 00:48:44;;;;;;;4.70;0.50;;;11.10;99.90;;;;;;5074962;28;20080;-82
2021/05/25 00:51:11;;;;;;;3.08;0.73;;;11.10;99.90;;;;;;5074778;28;20087;-83
2021/05/25 00:53:38;;;;;;;3.22;0.52;;;11.00;99.90;;;;;;5074902;28;20131;-82
2021/05/25 00:56:05;;;;;;;0.73;0.50;;;11.10;99.90;;;;;;5075071;28;20477;-81
2021/05/25 00:58:34;;;;;;;0.40;0.40;;;11.10;99.90;;;;;;5076623;28;20084;-82
2021/05/25 01:01:02;;;;;;;0.38;0.32;;;11.10;99.90;;;;;;5076238;28;20048;-80
2021/05/25 01:03:30;;;;;;;0.98;0.52;;;11.10;99.90;;;;;;5074891;28;20102;-81
2021/05/25 01:05:57;;;;;;;1.27;0.60;;;11.00;99.90;;;;;;5075571;28;20049;-82
2021/05/25 01:08:24;;;;;;;1.17;0.30;;;10.90;99.90;;;;;;5078308;28;20560;-83
2021/05/25 01:10:52;;;;;;;1.52;0.40;;;10.80;99.90;;;;;;5081794;28;20067;-82
2021/05/25 01:13:25;;;;;;;0.40;0.40;;;10.80;99.90;;;;;;5079698;28;20072;-82
2021/05/25 01:15:52;;;;;;;1.65;0.65;;;10.90;99.90;;;;;;5078524;28;20076;-82
2021/05/25 01:18:20;;;;;;;1.80;0.40;;;10.90;99.90;;;;;;5078607;28;20088;-80
2021/05/25 01:20:49;;;;;;;2.10;0.32;;;10.80;99.90;;;;;;5077642;28;20131;-82
2021/05/25 01:23:17;;;;;;;0.90;0.60;;;10.80;99.90;;;;;;5077179;28;20049;-80
2021/05/25 01:25:46;;;;;;;1.30;0.50;;;10.60;99.90;;;;;;5078038;28;20080;-81
2021/05/25 01:28:15;;;;;;;0.35;0.35;;;10.60;99.90;;;;;;5076162;28;20074;-82
2021/05/25 01:30:46;;;;;;;0.65;0.50;;;10.50;99.90;;;;;;5077374;28;20059;-81
2021/05/25 01:33:13;;;;;;;0.63;0.30;;;10.50;99.90;;;;;;5077606;28;20122;-82
2021/05/25 01:35:41;;;;;;;0.60;0.60;;;10.50;99.90;;;;;;5076152;28;20048;-81
2021/05/25 01:38:09;;;;;;;0.63;0.30;;;10.50;99.90;;;;;;5076144;28;20075;-82
2021/05/25 01:40:39;;;;;;;1.17;0.50;;;10.50;99.90;;;;;;5075551;28;20044;-80
2021/05/25 01:43:07;;;;;;;0.73;0.30;;;10.50;99.90;;;;;;5076420;28;20501;-82
2021/05/25 01:45:34;;;;;;;1.10;0.30;;;10.50;99.90;;;;;;5075241;28;20049;-82
2021/05/25 01:48:03;;;;;;;0.30;0.30;;;10.50;99.90;;;;;;5076421;28;20079;-82
2021/05/25 01:50:31;;;;;;;1.90;0.70;;;10.40;99.90;;;;;;5076473;28;20054;-81
2021/05/25 01:53:12;;;;;;;1.17;0.38;;;10.40;99.90;;;;;;5074453;28;20623;-81
2021/05/25 01:55:44;;;;;;;1.27;0.30;;;10.50;99.90;;;;;;5076131;28;20127;-82
2021/05/25 01:58:19;;;;;;;0.25;0.25;;;10.50;99.90;;;;;;5075939;28;20106;-79
2021/05/25 02:00:57;;;;;;;1.63;0.50;;;10.60;99.90;;;;;;5074577;28;20080;-82
2021/05/25 02:03:25;;;;;;;2.55;0.40;;;10.60;99.90;;;;;;5076053;28;20048;-81
2021/05/25 02:05:52;;;;;;;0.50;0.40;;;10.60;99.90;;;;;;5075651;28;20076;-81
2021/05/25 02:08:20;;;;;;;1.65;0.30;;;10.60;99.90;;;;;;5073560;28;20052;-80
2021/05/25 02:10:49;;;;;;;1.50;0.30;;;10.60;99.90;;;;;;5074138;28;20087;-81
2021/05/25 02:13:19;;;;;;;0.65;0.30;;;10.60;99.90;;;;;;5075937;28;20048;-80
2021/05/25 02:15:48;;;;;;;1.60;0.38;;;10.60;99.90;;;;;;5077054;28;20084;-82
2021/05/25 02:18:16;;;;;;;0.30;0.20;;;10.60;99.90;;;;;;5074714;28;20094;-81
2021/05/25 02:20:46;;;;;;;0.30;0.30;;;10.60;99.90;;;;;;5074626;28;20049;-81
2021/05/25 02:23:13;;;;;;;0.38;0.30;;;10.60;99.90;;;;;;5075542;28;20048;-81
2021/05/25 02:25:40;;;;;;;2.38;0.40;;;10.60;99.90;;;;;;5074363;28;20079;-79
2021/05/25 02:28:08;;;;;;;4.50;1.05;;;10.40;99.90;;;;;;5076366;28;20083;-81
2021/05/25 02:30:36;;;;;;;2.50;0.40;;;10.40;99.90;;;;;;5075537;28;20045;-81
2021/05/25 02:33:06;;;;;;;0.82;0.40;;;10.40;99.90;;;;;;5075264;28;20060;-81
2021/05/25 02:35:34;;;;;;;2.00;0.50;;;10.40;99.90;;;;;;5075507;28;20048;-82
2021/05/25 02:38:01;;;;;;;1.52;0.40;;;10.40;99.90;;;;;;5073987;28;20459;-82
2021/05/25 02:40:28;;;;;;;0.95;0.40;;;10.40;99.90;;;;;;5075480;28;20143;-82
2021/05/25 02:42:55;;;;;;;0.32;0.20;;;10.40;99.90;;;;;;5075472;28;20088;-82
2021/05/25 02:45:22;;;;;;;1.45;0.40;;;10.40;99.90;;;;;;5074593;28;20060;-81
2021/05/25 02:47:49;;;;;;;1.20;0.60;;;10.50;99.90;;;;;;5076987;28;20493;-82
2021/05/25 02:50:16;;;;;;;1.42;0.30;;;10.50;99.90;;;;;;5076336;28;20048;-82
2021/05/25 02:52:46;;;;;;;0.40;0.28;;;10.40;99.90;;;;;;5076430;28;20488;-81
2021/05/25 02:55:19;;;;;;;0.52;0.30;;;10.40;99.90;;;;;;5076285;28;20048;-82
2021/05/25 02:57:46;;;;;;;1.88;0.40;;;10.30;99.90;;;;;;5079137;28;20551;-83
2021/05/25 03:00:23;;;;;;;0.50;0.40;;;10.30;99.90;;;;;;5080577;28;20113;-82
2021/05/25 03:02:50;;;;;;;1.65;0.40;;;10.30;99.90;;;;;;5076742;28;20480;-82
2021/05/25 03:05:19;;;;;;;3.70;1.15;;;10.30;99.90;;;;;;5077889;28;20041;-81
2021/05/25 03:07:46;;;;;;;1.20;0.40;;;10.20;99.90;;;;;;5077153;28;20105;-82
2021/05/25 03:10:16;;;;;;;0.60;0.40;;;10.10;99.90;;;;;;5076171;28;20493;-82
2021/05/25 03:12:44;;;;;;;1.30;0.35;;;10.00;99.90;;;;;;5074519;28;20076;-80
2021/05/25 03:15:14;;;;;;;4.10;0.52;;;9.90;99.90;;;;;;5075748;28;20125;-82
2021/05/25 03:17:41;;;;;;;1.40;0.40;;;9.90;99.90;;;;;;5075272;28;20094;-82
2021/05/25 03:20:10;;;;;;;2.20;0.38;;;9.80;99.90;;;;;;5075448;28;20052;-82
2021/05/25 03:22:37;;;;;;;3.25;0.30;;;9.80;99.90;;;;;;5075582;28;20048;-82
2021/05/25 03:25:06;;;;;;;2.38;0.40;;;9.80;99.90;;;;;;5075479;28;20041;-82
2021/05/25 03:27:34;;;;;;;7.38;1.23;;;9.70;99.90;;;;;;5075607;28;20138;-81
2021/05/25 03:30:01;;;;;;;1.40;0.40;;;9.70;99.90;;;;;;5075891;28;20106;-82
2021/05/25 03:32:27;;;;;;;0.70;0.55;;;9.70;99.90;;;;;;5075688;28;20052;-82
2021/05/25 03:34:54;;;;;;;0.77;0.28;;;9.60;99.90;;;;;;5076892;28;20135;-81
2021/05/25 03:37:21;;;;;;;1.77;0.50;;;9.60;99.90;;;;;;5076820;28;20044;-82
2021/05/25 03:39:47;;;;;;;1.80;0.60;;;9.60;99.90;;;;;;5076401;28;20121;-82
2021/05/25 03:42:15;;;;;;;1.08;0.40;;;9.60;99.90;;;;;;5075837;28;20148;-82
2021/05/25 03:44:41;;;;;;;4.63;0.30;;;9.60;99.90;;;;;;5077487;28;20075;-82
2021/05/25 03:47:08;;;;;;;1.85;0.57;;;9.60;99.90;;;;;;5077444;28;20045;-82
2021/05/25 03:49:35;;;;;;;2.30;0.20;;;9.60;99.90;;;;;;5077513;28;20122;-82
2021/05/25 03:52:02;;;;;;;0.63;0.43;;;9.60;99.90;;;;;;5076117;28;20084;-82
2021/05/25 03:54:35;;;;;;;2.53;0.82;;;9.50;99.90;;;;;;5076890;28;20044;-81
2021/05/25 03:59:49;;;;;;;0.30;0.30;;;9.50;99.90;;;;;;5090278;28;20040;-82
2021/05/25 04:02:16;;;;;;;2.25;0.40;;;9.50;99.90;;;;;;5080147;28;20044;-83
2021/05/25 04:04:43;;;;;;;3.90;0.47;;;9.50;99.90;;;;;;5080161;28;20520;-83
2021/05/25 04:07:10;;;;;;;1.17;0.65;;;9.40;99.90;;;;;;5079954;28;20091;-82
2021/05/25 04:09:36;;;;;;;1.95;0.38;;;9.40;99.90;;;;;;5081688;28;20080;-82
2021/05/25 04:12:04;;;;;;;0.63;0.40;;;9.30;99.90;;;;;;5081881;28;20529;-80
2021/05/25 04:14:30;;;;;;;4.95;0.70;;;9.30;99.90;;;;;;5082604;28;20550;-82
2021/05/25 04:16:57;;;;;;;2.92;0.40;;;9.30;99.90;;;;;;5081213;28;20129;-82
2021/05/25 04:19:24;;;;;;;2.45;0.47;;;9.20;99.90;;;;;;5083491;28;20080;-81
2021/05/25 04:21:51;;;;;;;2.40;0.40;;;9.20;99.90;;;;;;5080094;28;20121;-82
2021/05/25 04:24:18;;;;;;;2.75;0.70;;;9.20;99.90;;;;;;5077239;28;20040;-82
2021/05/25 04:26:45;;;;;;;2.25;0.50;;;9.20;99.90;;;;;;5077577;28;20048;-81
2021/05/25 04:29:11;;;;;;;2.65;0.45;;;9.20;99.90;;;;;;5077363;28;20053;-82
2021/05/25 04:31:38;;;;;;;2.05;0.40;;;9.10;99.90;;;;;;5077469;28;20072;-82
2021/05/25 04:34:05;;;;;;;10.30;0.95;;;9.20;99.90;;;;;;5076016;28;20132;-82
2021/05/25 04:36:32;;;;;;;6.43;0.70;;;9.20;99.90;;;;;;5077656;28;20522;-81
2021/05/25 04:38:59;;;;;;;3.30;0.32;;;9.30;99.90;;;;;;5077140;28;20048;-82
2021/05/25 04:41:27;;;;;;;1.02;0.30;;;9.40;99.90;;;;;;5075556;28;20485;-82
2021/05/25 04:43:54;;;;;;;1.25;0.43;;;9.50;99.90;;;;;;5076872;28;20064;-82
2021/05/25 04:46:20;;;;;;;2.40;0.70;;;9.50;99.90;;;;;;5077949;28;20048;-82
2021/05/25 04:48:47;;;;;;;3.42;0.52;;;9.60;99.90;;;;;;5081582;28;20110;-82
2021/05/25 04:51:14;;;;;;;1.38;0.50;;;9.60;99.90;;;;;;5079661;28;20052;-82
2021/05/25 04:53:41;;;;;;;13.27;1.13;;;9.70;99.90;;;;;;5080493;28;20049;-82
2021/05/25 04:56:08;;;;;;;5.03;0.65;;;9.70;99.90;;;;;;5077587;28;20075;-82
2021/05/25 04:58:34;;;;;;;1.88;0.60;;;9.70;99.90;;;;;;5079778;28;20112;-82
2021/05/25 05:01:01;;;;;;;1.73;0.40;;;9.70;99.90;;;;;;5077830;28;20162;-81
2021/05/25 05:03:28;;;;;;;3.22;0.32;;;9.80;99.90;;;;;;5078683;28;20079;-82
2021/05/25 05:05:55;;;;;;;9.07;0.70;;;9.80;99.90;;;;;;5078019;28;20076;-82
2021/05/25 05:08:21;;;;;;;1.58;0.50;;;9.90;99.90;;;;;;5077774;28;20048;-81
2021/05/25 05:10:48;;;;;;;10.85;0.93;;;9.90;99.90;;;;;;5076946;28;20098;-81
2021/05/25 05:13:15;;;;;;;4.05;0.40;;;9.90;99.90;;;;;;5078314;28;20049;-81
2021/05/25 05:15:41;;;;;;;6.57;0.70;;;9.90;99.90;;;;;;5078936;28;20512;-82
2021/05/25 05:18:09;;;;;;;0.50;0.35;;;9.90;99.90;;;;;;5077953;28;20045;-82
2021/05/25 05:20:38;;;;;;;1.95;0.43;;;9.90;99.90;;;;;;5077628;28;20059;-82
2021/05/25 05:23:05;;;;;;;5.47;0.93;;;9.90;99.90;;;;;;5077608;28;20048;-81
2021/05/25 05:25:32;;;;;;;3.53;0.30;;;10.00;99.90;;;;;;5076428;28;20052;-81
2021/05/25 05:27:59;;;;;;;2.47;0.50;;;10.10;99.90;;;;;;5077453;28;20055;-81
2021/05/25 05:30:25;;;;;;;1.27;0.47;;;10.20;99.90;;;;;;5076994;28;20584;-81
2021/05/25 05:32:52;;;;;;;2.22;0.50;;;10.40;99.90;;;;;;5077840;28;20586;-81
2021/05/25 05:35:19;;;;;;;2.42;0.60;;;10.70;99.90;;;;;;5076901;28;20127;-81
2021/05/25 05:37:46;;;;;;;2.33;0.40;;;10.60;99.90;;;;;;5076856;28;20104;-82
2021/05/25 05:40:14;;;;;;;3.22;0.40;;;10.70;99.90;;;;;;5076567;28;20386;-82
2021/05/25 05:43:01;;;;;;;1.42;0.40;;;10.90;99.90;;;;;;5074853;28;20051;-82
2021/05/25 05:45:28;;;;;;;2.25;0.45;;;11.10;99.90;;;;;;5075938;28;20049;-82
2021/05/25 05:47:55;;;;;;;1.75;0.40;;;11.40;99.90;;;;;;5075851;28;20500;-81
2021/05/25 05:50:22;;;;;;;1.40;0.30;;;12.70;99.90;;;;;;5075794;28;20044;-82
2021/05/25 05:52:49;;;;;;;1.95;0.50;;;14.00;99.90;;;;;;5076338;28;20052;-80
2021/05/25 05:55:17;;;;;;;2.28;0.60;;;13.60;99.90;;;;;;5073631;28;20102;-80
2021/05/25 05:57:47;;;;;;;3.22;0.47;;;12.80;99.90;;;;;;5075677;28;20071;-80
2021/05/25 06:00:15;;;;;;;8.65;1.13;;;12.20;99.90;;;;;;5075764;28;20076;-82
2021/05/25 06:02:42;;;;;;;1.88;0.47;;;11.60;99.90;;;;;;5074678;28;20091;-81
2021/05/25 06:05:10;;;;;;;1.02;0.30;;;11.20;99.90;;;;;;5074807;28;20045;-81
2021/05/25 06:07:37;;;;;;;5.47;0.50;;;11.00;99.90;;;;;;5075686;28;20094;-81
2021/05/25 06:10:06;;;;;;;0.50;0.30;;;10.80;99.90;;;;;;5075326;28;20059;-81
2021/05/25 06:12:32;;;;;;;18.33;7.20;;;10.80;99.90;;;;;;5081539;28;20052;-81
2021/05/25 06:15:00;;;;;;;0.65;0.65;;;11.20;99.90;;;;;;5078472;28;20598;-82
2021/05/25 06:17:27;;;;;;;4.32;3.05;;;11.40;99.90;;;;;;5078612;28;20131;-81
2021/05/25 06:19:54;;;;;;;4.68;0.82;;;12.00;99.90;;;;;;5077308;28;20044;-80
2021/05/25 06:22:22;;;;;;;13.02;7.10;;;12.30;99.90;;;;;;5073526;28;20072;-81
2021/05/25 06:24:50;;;;;;;7.65;4.93;;;12.80;99.90;;;;;;5074322;28;20045;-81
2021/05/25 06:27:17;;;;;;;7.60;4.07;;;13.30;99.90;;;;;;5074207;28;20060;-81
2021/05/25 06:29:44;;;;;;;3.08;1.95;;;13.20;99.90;;;;;;5075580;28;20211;-82
2021/05/25 06:32:11;;;;;;;3.38;0.82;;;13.20;99.90;;;;;;5076688;28;20448;-81
2021/05/25 06:34:38;;;;;;;4.95;0.52;;;12.80;99.90;;;;;;5075859;28;20048;-82
2021/05/25 06:37:05;;;;;;;3.55;0.98;;;12.30;99.90;;;;;;5077686;28;20044;-81
2021/05/25 06:39:32;;;;;;;3.30;0.40;;;12.00;99.90;;;;;;5076465;28;20052;-81
2021/05/25 06:41:58;;;;;;;6.15;1.73;;;11.70;99.90;;;;;;5076714;28;20084;-82
2021/05/25 06:44:25;;;;;;;0.90;0.50;;;13.10;99.90;;;;;;5077747;28;20056;-82
2021/05/25 06:46:52;;;;;;;1.85;0.82;;;14.50;99.90;;;;;;5076349;28;20045;-82
2021/05/25 06:49:18;;;;;;;8.05;3.70;;;14.80;99.90;;;;;;5077208;28;20080;-82
2021/05/25 06:51:46;;;;;;;5.70;3.28;;;16.00;99.90;;;;;;5076704;28;20078;-82
2021/05/25 06:54:13;;;;;;;1.95;1.20;;;17.40;99.50;;;;;;5076096;28;20072;-81
2021/05/25 06:56:40;;;;;;;1.67;1.30;;;17.00;99.90;;;;;;5075811;28;20048;-81
2021/05/25 06:59:07;;;;;;;1.58;0.40;;;17.20;98.50;;;;;;5075665;28;20048;-81
2021/05/25 07:01:34;;;;;;;0.60;0.20;;;16.80;98.70;;;;;;5075296;28;20084;-80
2021/05/25 07:04:00;;;;;;;3.47;0.65;;;16.40;97.70;;;;;;5075814;28;20098;-80
2021/05/25 07:06:27;;;;;;;1.23;0.20;;;15.50;99.90;;;;;;5074512;28;20076;-81
2021/05/25 07:08:54;;;;;;;0.35;0.25;;;15.20;99.90;;;;;;5074439;28;20091;-81
2021/05/25 07:11:21;;;;;;;0.57;0.20;;;15.50;99.90;;;;;;5075310;28;20091;-81
2021/05/25 07:13:47;;;;;;;0.88;0.40;;;15.00;99.90;;;;;;5075529;28;20048;-81
2021/05/25 07:16:14;;;;;;;2.35;0.28;;;14.10;99.90;;;;;;5074521;28;20135;-81
2021/05/25 07:18:42;;;;;;;0.60;0.30;;;13.70;99.90;;;;;;5073479;28;20056;-80
2021/05/25 07:21:09;;;;;;;1.95;0.40;;;13.70;99.90;;;;;;5076641;28;20052;-81
2021/05/25 07:23:36;;;;;;;0.32;0.20;;;14.20;99.90;;;;;;5075231;28;20045;-81
2021/05/25 07:26:04;;;;;;;0.70;0.30;;;14.10;99.90;;;;;;5074383;28;20569;-81
2021/05/25 07:28:31;;;;;;;1.60;0.40;;;14.80;99.90;;;;;;5075644;28;20053;-81
2021/05/25 07:30:59;;;;;;;0.40;0.20;;;16.50;99.90;;;;;;5075386;28;20067;-81
2021/05/25 07:33:26;;;;;;;0.60;0.30;;;17.80;99.90;;;;;;5077796;28;20089;-81
2021/05/25 07:35:53;;;;;;;0.93;0.20;;;18.60;94.00;;;;;;5078191;28;20052;-81
2021/05/25 07:38:21;;;;;;;0.45;0.28;;;17.70;94.20;;;;;;5079707;28;20044;-82
2021/05/25 07:40:49;;;;;;;2.75;0.17;;;16.50;97.00;;;;;;5079877;28;20066;-81
2021/05/25 07:43:16;;;;;;;6.10;0.63;;;16.00;99.90;;;;;;5080606;28;20486;-81
2021/05/25 07:45:44;;;;;;;4.38;0.40;;;15.30;99.90;;;;;;5080599;28;20041;-82
2021/05/25 07:48:11;;;;;;;1.60;0.40;;;14.20;99.90;;;;;;5078795;28;20102;-81
2021/05/25 07:50:39;;;;;;;1.30;0.63;;;13.60;99.90;;;;;;5079336;28;20071;-82
2021/05/25 07:53:06;;;;;;;3.38;0.40;;;13.20;99.90;;;;;;5079664;28;20045;-80
2021/05/25 07:55:33;;;;;;;0.75;0.30;;;12.60;99.90;;;;;;5078846;28;20083;-82
2021/05/25 07:58:00;;;;;;;0.77;0.40;;;12.40;99.90;;;;;;5080226;28;20055;-82
2021/05/25 08:00:29;;;;;;;2.92;0.25;;;12.90;99.90;;;;;;5078904;28;20453;-82
2021/05/25 08:02:57;;;;;;;3.55;0.40;;;13.20;99.90;;;;;;5081385;28;20048;-81
2021/05/25 08:05:31;;;;;;;3.67;0.40;;;13.00;99.90;;;;;;5080027;28;20052;-82
2021/05/25 08:08:02;;;;;;;1.67;0.40;;;13.20;99.90;;;;;;5079529;28;20053;-81
2021/05/25 08:10:29;;;;;;;1.75;0.40;;;14.00;99.90;;;;;;5080567;28;20048;-82
2021/05/25 08:12:56;;;;;;;0.98;0.20;;;14.50;99.90;;;;;;5080697;28;20060;-81
2021/05/25 08:15:25;;;;;;;0.65;0.25;;;15.20;99.90;;;;;;5076714;28;20055;-81
2021/05/25 08:18:00;;;;;;;1.95;0.10;;;16.00;99.90;;;;;;5078887;28;20457;-82
2021/05/25 08:20:31;;;;;;;0.50;0.20;;;15.70;99.90;;;;;;5076399;28;20057;-82
2021/05/25 08:23:18;;;;;;;5.82;0.70;;;16.30;99.40;;;;;;5077108;28;20527;-81
2021/05/25 08:25:45;;;;;;;2.45;0.55;;;16.10;97.30;;;;;;5080460;28;20083;-80
2021/05/25 08:28:13;;;;;;;4.80;0.43;;;15.70;96.80;;;;;;5081927;28;20055;-81
2021/05/25 08:30:42;;;;;;;1.27;0.47;;;14.70;99.90;;;;;;5081246;28;20044;-82
2021/05/25 08:33:12;;;;;;;1.05;0.47;;;14.90;99.90;;;;;;5076838;28;20056;-81
2021/05/25 08:35:42;;;;;;;2.15;0.30;;;14.80;99.90;;;;;;5079164;28;20098;-80
2021/05/25 08:38:11;;;;;;;2.13;0.30;;;14.80;99.90;;;;;;5080006;28;20106;-79
2021/05/25 08:40:38;;;;;;;1.60;0.32;;;14.50;99.90;;;;;;5084949;28;20067;-81
2021/05/25 08:43:06;;;;;;;1.63;1.17;;;14.30;99.90;;;;;;5084214;28;20462;-80
2021/05/25 08:45:33;;;;;;;5.82;0.60;;;14.60;99.90;;;;;;5079867;28;20048;-80
2021/05/25 08:48:01;;;;;;;1.70;0.38;;;14.60;99.90;;;;;;5079180;28;20132;-81
2021/05/25 08:50:49;;;;;;;1.23;0.50;;;14.10;99.90;;;;;;5079350;28;20533;-81
2021/05/25 08:53:16;;;;;;;2.13;0.63;;;14.80;99.90;;;;;;5077195;28;20044;-81
2021/05/25 08:55:47;;;;;;;6.07;0.70;;;14.90;99.90;;;;;;5079271;28;20495;-80
2021/05/25 08:58:14;;;;;;;3.20;0.30;;;15.00;99.90;;;;;;5078681;28;20045;-82
2021/05/25 09:00:41;;;;;;;0.85;0.20;;;14.40;99.90;;;;;;5076526;28;20079;-79
2021/05/25 09:03:07;;;;;;;0.88;0.30;;;13.60;99.90;;;;;;5079309;28;20048;-79
2021/05/25 09:05:34;;;;;;;0.73;0.22;;;12.70;99.90;;;;;;5076448;28;20131;-81
2021/05/25 09:08:01;;;;;;;3.30;0.30;;;12.10;99.90;;;;;;5076642;28;20509;-81
2021/05/25 09:10:46;;;;;;;1.05;0.20;;;12.40;99.90;;;;;;5077297;28;20052;-82
2021/05/25 09:13:16;;;;;;;0.35;0.20;;;14.10;99.90;;;;;;5075346;28;20048;-82
2021/05/25 09:15:48;;;;;;;0.40;0.10;;;17.00;99.90;;;;;;5076638;28;20048;-81
2021/05/25 09:18:20;;;;;;;0.55;0.20;;;18.70;96.00;;;;;;5075766;28;20090;-81
2021/05/25 09:20:52;;;;;;;0.52;0.20;;;19.00;93.50;;;;;;5077147;28;20045;-81
2021/05/25 09:23:43;;;;;;;0.40;0.15;;;19.90;89.10;;;;;;5075963;28;20044;-82
2021/05/25 09:26:25;;;;;;;0.47;0.20;;;21.50;80.90;;;;;;5075910;28;20055;-80
2021/05/25 09:29:18;;;;;;;4.05;0.40;;;21.40;68.50;;;;;;5074901;28;20052;-81
2021/05/25 09:31:48;;;;;;;4.50;0.73;;;20.80;71.40;;;;;;5075264;28;20052;-79
2021/05/25 09:34:17;;;;;;;2.80;0.20;;;19.70;72.00;;;;;;5075252;28;20087;-82
2021/05/25 09:36:57;;;;;;;4.22;0.40;;;19.60;73.30;;;;;;5075689;28;20098;-80
2021/05/25 09:39:25;;;;;;;0.10;0.10;;;17.80;77.40;;;;;;5075040;28;20478;-80
2021/05/25 09:41:55;;;;;;;1.05;0.20;;;16.90;83.20;;;;;;5075793;28;20040;-78
2021/05/25 09:44:22;;;;;;;5.95;0.40;;;16.10;90.50;;;;;;5082259;28;20053;-81
2021/05/25 09:46:49;;;;;;;0.43;0.17;;;15.40;99.90;;;;;;5086958;28;20109;-81
2021/05/25 09:49:16;;;;;;;1.88;0.20;;;14.90;99.90;;;;;;5080635;28;20086;-82
2021/05/25 09:51:43;;;;;;;3.72;0.30;;;14.30;99.90;;;;;;5077138;28;20571;-81
2021/05/25 09:54:23;;;;;;;2.72;0.20;;;13.60;99.90;;;;;;5078162;28;20513;-82
2021/05/25 09:57:02;;;;;;;1.45;0.13;;;14.70;99.90;;;;;;5077462;28;20144;-82
2021/05/25 09:59:39;;;;;;;2.40;0.30;;;15.90;99.90;;;;;;5075458;28;20071;-78
2021/05/25 10:02:18;;;;;;;4.13;0.40;;;14.40;99.90;;;;;;5076406;28;20048;-81
2021/05/25 10:04:59;;;;;;;2.55;0.30;;;12.90;99.90;;;;;;5076178;28;20421;-81
2021/05/25 10:07:27;;;;;;;2.00;0.35;;;12.00;99.90;;;;;;5075711;28;20493;-81
2021/05/25 10:09:55;;;;;;;0.20;0.20;;;13.30;99.90;;;;;;5078146;28;20078;-81
2021/05/25 10:12:24;;;;;;;0.93;0.10;;;14.90;99.90;;;;;;5076154;28;20127;-79
2021/05/25 10:14:52;;;;;;;0.85;0.30;;;16.00;99.90;;;;;;5079433;28;20049;-83
2021/05/25 10:20:09;;;;;;;0.75;0.10;;;16.00;99.90;;;;;;5087343;28;20052;-81
2021/05/25 10:22:38;;;;;;;4.22;0.50;;;15.20;99.90;;;;;;5076597;28;20052;-80
2021/05/25 10:25:07;;;;;;;0.25;0.20;;;14.70;99.90;;;;;;5076725;28;20076;-80
2021/05/25 10:27:34;;;;;;;0.13;0.10;;;14.60;99.90;;;;;;5077521;28;20091;-81
2021/05/25 10:30:26;;;;;;;1.70;0.15;;;15.10;99.90;;;;;;5077249;28;20040;-81
2021/05/25 10:33:13;;;;;;;7.55;0.82;;;15.50;99.90;;;;;;5075204;28;20528;-80
2021/05/25 10:35:50;;;;;;;2.55;0.75;;;15.30;99.90;;;;;;5075987;28;20489;-81
2021/05/25 10:38:18;;;;;;;0.47;0.20;;;15.90;99.90;;;;;;5075358;28;20080;-80
2021/05/25 10:40:47;;;;;;;2.95;0.10;;;15.60;99.90;;;;;;5074087;28;20439;-81
2021/05/25 10:43:34;;;;;;;4.28;0.40;;;15.60;99.90;;;;;;5074226;28;20080;-79
2021/05/25 10:46:12;;;;;;;1.25;0.40;;;17.20;99.90;;;;;;5075818;28;20068;-79
2021/05/25 10:51:44;;;;;;;0.60;0.10;;;15.70;99.90;;;;;;5076019;28;20083;-81
2021/05/25 10:54:34;;;;;;;0.68;0.25;;;15.80;99.90;;;;;;5075121;28;20131;-80
2021/05/25 10:57:32;;;;;;;0.40;0.20;;;15.00;99.90;;;;;;5073748;28;20097;-79
2021/05/25 11:00:11;;;;;;;2.13;0.28;;;14.00;99.90;;;;;;5073814;28;20067;-79
2021/05/25 11:02:45;;;;;;;0.20;0.17;;;13.00;99.90;;;;;;5075688;28;20076;-79
2021/05/25 11:05:27;;;;;;;0.13;0.10;;;12.50;99.90;;;;;;5074134;28;20048;-81
2021/05/25 11:07:55;;;;;;;0.60;0.10;;;12.50;99.90;;;;;;5076034;28;20060;-80
2021/05/25 11:10:27;;;;;;;0.28;0.20;;;12.70;99.90;;;;;;5075650;28;20108;-80
2021/05/25 11:13:20;;;;;;;0.17;0.17;;;13.00;99.90;;;;;;5074965;28;20044;-81
2021/05/25 11:16:13;;;;;;;0.40;0.10;;;12.60;99.90;;;;;;5073779;28;20086;-79
2021/05/25 11:19:03;;;;;;;0.57;0.20;;;12.00;99.90;;;;;;5073220;28;20501;-82
2021/05/25 11:24:29;;;;;;;3.95;0.20;;;11.40;99.90;;;;;;5074211;28;20068;-82
2021/05/25 11:27:07;;;;;;;0.40;0.15;;;11.20;99.90;;;;;;5074343;28;20072;-81
2021/05/25 11:29:57;;;;;;;0.30;0.20;;;11.30;99.90;;;;;;5072858;28;20045;-80
2021/05/25 11:32:29;;;;;;;0.65;0.20;;;11.50;99.90;;;;;;5073909;28;20080;-80
2021/05/25 11:35:02;;;;;;;0.20;0.20;;;11.80;99.90;;;;;;5074226;28;20051;-80
2021/05/25 11:37:38;;;;;;;0.32;0.25;;;12.00;99.90;;;;;;5074017;28;20053;-82
2021/05/25 11:40:13;;;;;;;1.77;0.40;;;12.80;99.90;;;;;;5074620;28;20076;-82
2021/05/25 11:42:48;;;;;;;0.20;0.10;;;13.00;99.90;;;;;;5072325;28;20144;-80
2021/05/25 11:45:21;;;;;;;1.17;0.20;;;13.00;99.90;;;;;;5072362;28;20048;-81
2021/05/25 11:47:55;;;;;;;0.40;0.20;;;13.10;99.90;;;;;;5074161;28;20040;-81
2021/05/25 11:50:23;;;;;;;2.80;0.10;;;13.30;99.90;;;;;;5075170;28;20135;-82
2021/05/25 11:53:01;;;;;;;0.70;0.20;;;13.30;99.90;;;;;;5083088;28;20048;-82
2021/05/25 11:55:29;;;;;;;0.93;0.20;;;13.40;99.90;;;;;;5079810;28;20413;-80
2021/05/25 11:57:57;;;;;;;0.10;0.10;;;13.50;99.90;;;;;;5083534;28;20048;-83
2021/05/25 12:00:29;;;;;;;0.10;0.10;;;13.40;99.90;;;;;;5083016;28;20048;-81
2021/05/25 12:02:57;;;;;;;1.23;0.30;;;13.40;99.90;;;;;;5078257;28;20064;-82
2021/05/25 12:05:29;;;;;;;0.60;0.52;;;13.60;99.90;;;;;;5079674;28;20052;-83
2021/05/25 12:07:57;;;;;;;1.30;0.25;;;14.00;99.90;;;;;;5081630;28;20045;-83
2021/05/25 12:10:27;;;;;;;0.10;0.10;;;14.50;99.90;;;;;;5076431;28;20075;-81
2021/05/25 12:13:05;;;;;;;0.10;0.00;;;14.80;99.90;;;;;;5074646;28;20572;-82
2021/05/25 12:15:38;;;;;;;0.03;0.03;;;14.80;99.90;;;;;;5076584;28;20044;-82
2021/05/25 12:18:10;;;;;;;0.98;0.10;;;14.80;99.90;;;;;;5074120;28;20056;-81
2021/05/25 12:20:50;;;;;;;0.30;0.30;;;14.40;99.90;;;;;;5076824;28;20064;-82
2021/05/25 12:23:28;;;;;;;1.35;0.30;;;14.30;99.90;;;;;;5077952;28;20079;-82
2021/05/25 12:26:05;;;;;;;0.52;0.28;;;14.20;99.90;;;;;;5078852;28;20070;-81
2021/05/25 12:28:38;;;;;;;0.45;0.10;;;13.90;99.90;;;;;;5078986;28;20074;-80
2021/05/25 12:31:07;;;;;;;0.32;0.13;;;13.70;99.90;;;;;;5078216;28;20056;-82
2021/05/25 12:33:36;;;;;;;0.32;0.10;;;13.10;99.90;;;;;;5079157;28;20052;-81
2021/05/25 12:36:15;;;;;;;0.70;0.30;;;13.00;99.90;;;;;;5078539;28;20080;-81
2021/05/25 12:39:05;;;;;;;0.10;0.10;;;12.70;99.90;;;;;;5077490;28;20079;-81
2021/05/25 12:41:40;;;;;;;0.90;0.15;;;12.60;99.90;;;;;;5078022;28;20505;-81
2021/05/25 12:44:12;;;;;;;0.10;0.10;;;12.70;99.90;;;;;;5078728;28;20120;-80
2021/05/25 12:47:01;;;;;;;2.28;0.15;;;13.00;99.90;;;;;;5079409;28;20048;-80
2021/05/25 12:49:35;;;;;;;6.28;0.30;;;13.00;99.90;;;;;;5078078;28;20106;-81
2021/05/25 12:52:25;;;;;;;1.08;0.20;;;13.00;99.90;;;;;;5077579;28;20501;-81
2021/05/25 12:55:12;;;;;;;3.10;0.30;;;13.20;99.90;;;;;;5078953;28;20048;-82
2021/05/25 12:57:52;;;;;;;1.70;0.20;;;13.20;99.90;;;;;;5080176;28;20048;-81
2021/05/25 13:00:36;;;;;;;3.40;0.50;;;13.30;99.90;;;;;;5078854;28;20040;-81
2021/05/25 13:03:22;;;;;;;;;;;13.50;99.90;;;;;;5077940;28;20044;-81
2021/05/25 13:05:50;;;;;;;3.47;0.20;;;13.40;99.90;;;;;;5077105;28;20360;-80
2021/05/25 13:08:21;;;;;;;2.35;0.40;;;13.50;99.90;;;;;;5079844;28;20091;-80
2021/05/25 13:10:53;;;;;;;4.60;0.20;;;13.60;99.90;;;;;;5078471;28;20080;-80
2021/05/25 13:13:22;;;;;;;0.20;0.10;;;13.70;99.90;;;;;;5079811;28;20509;-79
2021/05/25 13:15:56;;;;;;;5.15;0.60;;;13.90;99.90;;;;;;5078080;28;20052;-82